sensor_id;sensor_type;location;lat;lon;timestamp;pressure;altitude;pressure_sealevel;temperature;humidity
42247;BME280;27913;42.722;23.268;2024-02-14T00:01:53;94563.06;;;4.26;100.00
42247;BME280;27913;42.722;23.268;2024-02-14T00:04:19;94593.88;;;4.47;100.00
42247;BME280;27913;42.722;23.268;2024-02-14T00:06:45;94719.28;;;5.29;100.00
42247;BME280;27913;42.722;23.268;2024-02-14T00:09:11;94562.88;;;4.19;100.00
42247;BME280;27913;42.722;23.268;2024-02-14T00:11:37;94648.59;;;4.64;100.00
42247;BME280;27913;42.722;23.268;2024-02-14T00:14:03;94738.50;;;5.28;100.00
42247;BME280;27913;42.722;23.268;2024-02-14T00:16:29;94569.72;;;4.29;100.00
42247;BME280;27913;42.722;23.268;2024-02-14T00:18:57;94624.81;;;4.59;100.00
42247;BME280;27913;42.722;23.268;2024-02-14T00:21:23;94644.69;;;4.60;100.00
42247;BME280;27913;42.722;23.268;2024-02-14T00:23:50;94588.75;;;4.21;100.00
42247;BME280;27913;42.722;23.268;2024-02-14T00:26:16;94583.22;;;4.24;100.00
42247;BME280;27913;42.722;23.268;2024-02-14T00:28:42;94731.00;;;5.25;100.00
42247;BME280;27913;42.722;23.268;2024-02-14T00:31:07;94595.41;;;4.23;100.00
42247;BME280;27913;42.722;23.268;2024-02-14T00:33:33;94648.41;;;4.57;100.00
42247;BME280;27913;42.722;23.268;2024-02-14T00:35:58;94609.66;;;4.46;100.00
42247;BME280;27913;42.722;23.268;2024-02-14T00:38:24;94484.44;;;3.62;100.00
42247;BME280;27913;42.722;23.268;2024-02-14T00:40:49;94591.50;;;4.19;100.00
42247;BME280;27913;42.722;23.268;2024-02-14T00:43:15;94653.47;;;4.59;100.00
42247;BME280;27913;42.722;23.268;2024-02-14T00:45:41;94549.09;;;3.92;100.00
42247;BME280;27913;42.722;23.268;2024-02-14T00:48:07;94598.06;;;4.32;100.00
42247;BME280;27913;42.722;23.268;2024-02-14T00:50:32;94563.31;;;4.06;100.00
42247;BME280;27913;42.722;23.268;2024-02-14T00:52:59;94597.72;;;4.27;100.00
42247;BME280;27913;42.722;23.268;2024-02-14T00:55:24;94638.19;;;4.64;100.00
42247;BME280;27913;42.722;23.268;2024-02-14T00:57:50;94661.47;;;4.66;100.00
42247;BME280;27913;42.722;23.268;2024-02-14T01:00:16;94582.25;;;4.25;100.00
42247;BME280;27913;42.722;23.268;2024-02-14T01:05:19;94548.03;;;4.11;100.00
42247;BME280;27913;42.722;23.268;2024-02-14T01:07:44;94594.81;;;4.38;100.00
42247;BME280;27913;42.722;23.268;2024-02-14T01:10:11;94673.72;;;4.82;100.00
42247;BME280;27913;42.722;23.268;2024-02-14T01:12:37;94762.16;;;5.35;100.00
42247;BME280;27913;42.722;23.268;2024-02-14T01:15:02;94720.38;;;5.18;100.00
42247;BME280;27913;42.722;23.268;2024-02-14T01:17:28;94451.38;;;3.38;100.00
42247;BME280;27913;42.722;23.268;2024-02-14T01:19:54;94448.75;;;3.38;100.00
42247;BME280;27913;42.722;23.268;2024-02-14T01:22:19;94677.16;;;4.91;100.00
42247;BME280;27913;42.722;23.268;2024-02-14T01:24:45;94476.63;;;3.54;100.00
42247;BME280;27913;42.722;23.268;2024-02-14T01:27:10;94396.50;;;3.14;100.00
42247;BME280;27913;42.722;23.268;2024-02-14T01:29:36;94585.47;;;4.19;100.00
42247;BME280;27913;42.722;23.268;2024-02-14T01:32:02;94614.34;;;4.34;100.00
42247;BME280;27913;42.722;23.268;2024-02-14T01:34:29;94590.44;;;4.39;100.00
42247;BME280;27913;42.722;23.268;2024-02-14T01:36:55;94744.41;;;5.39;100.00
42247;BME280;27913;42.722;23.268;2024-02-14T01:39:21;94700.00;;;4.97;100.00
42247;BME280;27913;42.722;23.268;2024-02-14T01:41:48;94540.00;;;3.88;100.00
42247;BME280;27913;42.722;23.268;2024-02-14T01:44:18;94754.31;;;5.35;100.00
42247;BME280;27913;42.722;23.268;2024-02-14T01:46:46;94758.06;;;5.32;100.00
42247;BME280;27913;42.722;23.268;2024-02-14T01:49:12;94739.81;;;5.32;100.00
42247;BME280;27913;42.722;23.268;2024-02-14T01:51:39;94728.84;;;5.04;100.00
42247;BME280;27913;42.722;23.268;2024-02-14T01:54:07;94651.03;;;4.66;100.00
42247;BME280;27913;42.722;23.268;2024-02-14T01:56:33;94748.78;;;5.30;100.00
42247;BME280;27913;42.722;23.268;2024-02-14T01:59:00;94607.84;;;4.38;100.00
42247;BME280;27913;42.722;23.268;2024-02-14T02:01:26;94536.56;;;3.88;100.00
42247;BME280;27913;42.722;23.268;2024-02-14T02:03:52;94652.81;;;4.57;100.00
42247;BME280;27913;42.722;23.268;2024-02-14T02:06:18;94665.03;;;4.56;100.00
42247;BME280;27913;42.722;23.268;2024-02-14T02:08:44;94643.53;;;4.54;100.00
42247;BME280;27913;42.722;23.268;2024-02-14T02:11:10;94607.00;;;4.38;100.00
42247;BME280;27913;42.722;23.268;2024-02-14T02:13:36;94666.38;;;4.69;100.00
42247;BME280;27913;42.722;23.268;2024-02-14T02:16:05;94754.47;;;5.25;100.00
42247;BME280;27913;42.722;23.268;2024-02-14T02:18:33;94386.63;;;2.83;100.00
42247;BME280;27913;42.722;23.268;2024-02-14T02:20:59;94777.13;;;5.25;100.00
42247;BME280;27913;42.722;23.268;2024-02-14T02:23:24;94759.84;;;5.24;100.00
42247;BME280;27913;42.722;23.268;2024-02-14T02:25:50;94474.50;;;3.49;100.00
42247;BME280;27913;42.722;23.268;2024-02-14T02:28:16;94777.44;;;5.22;100.00
42247;BME280;27913;42.722;23.268;2024-02-14T02:30:42;94771.22;;;5.14;100.00
42247;BME280;27913;42.722;23.268;2024-02-14T02:33:07;94766.34;;;5.19;100.00
42247;BME280;27913;42.722;23.268;2024-02-14T02:35:34;94680.00;;;4.54;100.00
42247;BME280;27913;42.722;23.268;2024-02-14T02:38:00;94675.47;;;4.56;100.00
42247;BME280;27913;42.722;23.268;2024-02-14T02:40:25;94650.75;;;4.26;100.00
42247;BME280;27913;42.722;23.268;2024-02-14T02:42:53;94777.41;;;5.13;100.00
42247;BME280;27913;42.722;23.268;2024-02-14T02:45:18;94761.75;;;5.13;100.00
42247;BME280;27913;42.722;23.268;2024-02-14T02:47:44;94672.97;;;4.46;100.00
42247;BME280;27913;42.722;23.268;2024-02-14T02:50:10;94784.09;;;5.07;100.00
42247;BME280;27913;42.722;23.268;2024-02-14T02:52:35;94773.34;;;5.11;100.00
42247;BME280;27913;42.722;23.268;2024-02-14T02:55:01;94806.88;;;5.05;100.00
42247;BME280;27913;42.722;23.268;2024-02-14T02:57:28;94731.44;;;4.61;100.00
42247;BME280;27913;42.722;23.268;2024-02-14T02:59:54;94646.03;;;3.94;100.00
42247;BME280;27913;42.722;23.268;2024-02-14T03:02:20;94697.09;;;4.22;100.00
42247;BME280;27913;42.722;23.268;2024-02-14T03:04:46;94801.66;;;4.97;100.00
42247;BME280;27913;42.722;23.268;2024-02-14T03:07:12;94640.72;;;4.04;100.00
42247;BME280;27913;42.722;23.268;2024-02-14T03:09:38;94800.97;;;4.95;100.00
42247;BME280;27913;42.722;23.268;2024-02-14T03:12:04;94805.22;;;4.96;100.00
42247;BME280;27913;42.722;23.268;2024-02-14T03:14:31;94451.03;;;2.80;100.00
42247;BME280;27913;42.722;23.268;2024-02-14T03:16:59;94706.78;;;4.38;100.00
42247;BME280;27913;42.722;23.268;2024-02-14T03:19:25;94722.09;;;4.41;100.00
42247;BME280;27913;42.722;23.268;2024-02-14T03:21:55;94818.47;;;5.11;100.00
42247;BME280;27913;42.722;23.268;2024-02-14T03:24:21;94559.00;;;3.54;100.00
42247;BME280;27913;42.722;23.268;2024-02-14T03:26:47;94792.69;;;5.00;100.00
42247;BME280;27913;42.722;23.268;2024-02-14T03:29:13;94823.38;;;5.14;100.00
42247;BME280;27913;42.722;23.268;2024-02-14T03:31:39;94789.72;;;4.94;100.00
42247;BME280;27913;42.722;23.268;2024-02-14T03:34:04;94669.44;;;4.21;100.00
42247;BME280;27913;42.722;23.268;2024-02-14T03:36:30;94827.50;;;5.25;100.00
42247;BME280;27913;42.722;23.268;2024-02-14T03:38:58;94833.19;;;5.29;100.00
42247;BME280;27913;42.722;23.268;2024-02-14T03:41:24;94441.31;;;2.82;99.04
42247;BME280;27913;42.722;23.268;2024-02-14T03:43:49;94848.19;;;5.27;99.27
42247;BME280;27913;42.722;23.268;2024-02-14T03:46:16;94839.72;;;5.25;99.15
42247;BME280;27913;42.722;23.268;2024-02-14T03:48:44;94752.44;;;4.59;98.89
42247;BME280;27913;42.722;23.268;2024-02-14T03:51:10;94747.06;;;4.52;99.59
42247;BME280;27913;42.722;23.268;2024-02-14T03:53:37;94844.03;;;5.07;99.50
42247;BME280;27913;42.722;23.268;2024-02-14T03:56:03;94755.50;;;4.46;98.94
42247;BME280;27913;42.722;23.268;2024-02-14T03:58:28;94743.25;;;4.38;99.15
42247;BME280;27913;42.722;23.268;2024-02-14T04:00:54;94851.53;;;5.11;99.78
42247;BME280;27913;42.722;23.268;2024-02-14T04:03:20;94865.06;;;5.06;99.30
42247;BME280;27913;42.722;23.268;2024-02-14T04:05:45;94839.00;;;5.06;99.54
42247;BME280;27913;42.722;23.268;2024-02-14T04:08:12;94850.03;;;5.00;99.50
42247;BME280;27913;42.722;23.268;2024-02-14T04:10:38;94501.38;;;2.78;99.63
42247;BME280;27913;42.722;23.268;2024-02-14T04:13:04;94769.81;;;4.50;99.66
42247;BME280;27913;42.722;23.268;2024-02-14T04:15:31;94699.59;;;3.97;99.08
42247;BME280;27913;42.722;23.268;2024-02-14T04:17:56;94863.38;;;4.97;99.28
42247;BME280;27913;42.722;23.268;2024-02-14T04:20:22;94852.75;;;4.90;100.00
42247;BME280;27913;42.722;23.268;2024-02-14T04:22:48;94862.16;;;4.82;100.00
42247;BME280;27913;42.722;23.268;2024-02-14T04:25:13;94812.13;;;4.44;100.00
42247;BME280;27913;42.722;23.268;2024-02-14T04:27:39;94664.38;;;3.40;100.00
42247;BME280;27913;42.722;23.268;2024-02-14T04:30:05;94419.56;;;1.93;100.00
42247;BME280;27913;42.722;23.268;2024-02-14T04:32:31;94879.78;;;4.89;100.00
42247;BME280;27913;42.722;23.268;2024-02-14T04:34:56;94873.44;;;4.91;100.00
42247;BME280;27913;42.722;23.268;2024-02-14T04:37:23;94892.16;;;4.87;100.00
42247;BME280;27913;42.722;23.268;2024-02-14T04:39:48;94876.66;;;4.85;100.00
42247;BME280;27913;42.722;23.268;2024-02-14T04:42:14;94770.28;;;4.19;100.00
42247;BME280;27913;42.722;23.268;2024-02-14T04:44:40;94661.84;;;3.48;100.00
42247;BME280;27913;42.722;23.268;2024-02-14T04:47:05;94886.28;;;4.85;100.00
42247;BME280;27913;42.722;23.268;2024-02-14T04:49:31;94843.63;;;4.59;100.00
42247;BME280;27913;42.722;23.268;2024-02-14T04:51:57;94739.91;;;3.74;100.00
42247;BME280;27913;42.722;23.268;2024-02-14T04:54:23;94795.00;;;4.15;100.00
42247;BME280;27913;42.722;23.268;2024-02-14T04:56:48;94895.16;;;4.74;100.00
42247;BME280;27913;42.722;23.268;2024-02-14T04:59:14;94840.34;;;4.30;100.00
42247;BME280;27913;42.722;23.268;2024-02-14T05:01:40;94810.13;;;4.11;100.00
42247;BME280;27913;42.722;23.268;2024-02-14T05:04:06;94897.78;;;4.74;100.00
42247;BME280;27913;42.722;23.268;2024-02-14T05:06:32;94908.16;;;4.65;100.00
42247;BME280;27913;42.722;23.268;2024-02-14T05:08:58;94936.97;;;4.64;100.00
42247;BME280;27913;42.722;23.268;2024-02-14T05:11:23;94672.84;;;3.23;100.00
42247;BME280;27913;42.722;23.268;2024-02-14T05:13:49;94548.03;;;2.34;100.00
42247;BME280;27913;42.722;23.268;2024-02-14T05:16:19;94478.69;;;1.89;100.00
42247;BME280;27913;42.722;23.268;2024-02-14T05:18:45;94921.75;;;4.59;100.00
42247;BME280;27913;42.722;23.268;2024-02-14T05:21:10;94937.53;;;4.57;100.00
42247;BME280;27913;42.722;23.268;2024-02-14T05:23:36;94933.00;;;4.59;100.00
42247;BME280;27913;42.722;23.268;2024-02-14T05:26:02;94769.22;;;3.58;100.00
42247;BME280;27913;42.722;23.268;2024-02-14T05:28:29;94925.50;;;4.56;100.00
42247;BME280;27913;42.722;23.268;2024-02-14T05:30:55;94936.06;;;4.55;100.00
42247;BME280;27913;42.722;23.268;2024-02-14T05:33:21;94974.00;;;4.57;100.00
42247;BME280;27913;42.722;23.268;2024-02-14T05:35:51;94937.22;;;4.61;100.00
42247;BME280;27913;42.722;23.268;2024-02-14T05:38:17;94883.41;;;4.06;100.00
42247;BME280;27913;42.722;23.268;2024-02-14T05:40:46;94951.25;;;4.59;100.00
42247;BME280;27913;42.722;23.268;2024-02-14T05:43:12;94793.56;;;3.57;100.00
42247;BME280;27913;42.722;23.268;2024-02-14T05:45:38;94864.16;;;3.99;100.00
42247;BME280;27913;42.722;23.268;2024-02-14T05:48:04;94952.81;;;4.52;100.00
42247;BME280;27913;42.722;23.268;2024-02-14T05:50:29;94872.22;;;3.88;100.00
42247;BME280;27913;42.722;23.268;2024-02-14T05:52:55;94985.31;;;4.48;100.00
42247;BME280;27913;42.722;23.268;2024-02-14T05:55:23;94573.91;;;1.97;100.00
42247;BME280;27913;42.722;23.268;2024-02-14T05:57:48;94803.81;;;3.41;100.00
42247;BME280;27913;42.722;23.268;2024-02-14T06:00:15;94874.88;;;3.78;100.00
42247;BME280;27913;42.722;23.268;2024-02-14T06:02:41;94967.38;;;4.45;100.00
42247;BME280;27913;42.722;23.268;2024-02-14T06:05:07;94909.47;;;3.88;100.00
42247;BME280;27913;42.722;23.268;2024-02-14T06:07:37;94916.22;;;3.99;99.40
42247;BME280;27913;42.722;23.268;2024-02-14T06:10:03;94907.00;;;3.86;99.34
42247;BME280;27913;42.722;23.268;2024-02-14T06:12:29;94859.69;;;3.55;99.41
42247;BME280;27913;42.722;23.268;2024-02-14T06:14:57;94608.16;;;2.01;99.29
42247;BME280;27913;42.722;23.268;2024-02-14T06:17:23;94997.09;;;4.52;98.97
42247;BME280;27913;42.722;23.268;2024-02-14T06:19:49;94894.19;;;3.75;98.85
42247;BME280;27913;42.722;23.268;2024-02-14T06:22:15;94901.56;;;3.80;99.02
42247;BME280;27913;42.722;23.268;2024-02-14T06:24:40;95006.03;;;4.50;99.15
42247;BME280;27913;42.722;23.268;2024-02-14T06:27:06;94555.94;;;1.58;98.43
42247;BME280;27913;42.722;23.268;2024-02-14T06:29:32;94998.59;;;4.55;98.20
42247;BME280;27913;42.722;23.268;2024-02-14T06:31:58;95048.22;;;4.53;97.74
42247;BME280;27913;42.722;23.268;2024-02-14T06:34:24;94795.53;;;3.09;97.62
42247;BME280;27913;42.722;23.268;2024-02-14T06:36:51;95009.94;;;4.54;96.71
42247;BME280;27913;42.722;23.268;2024-02-14T06:39:16;94868.19;;;3.75;96.76
42247;BME280;27913;42.722;23.268;2024-02-14T06:41:43;95042.94;;;4.63;96.31
42247;BME280;27913;42.722;23.268;2024-02-14T06:44:10;94979.25;;;4.39;96.36
42247;BME280;27913;42.722;23.268;2024-02-14T06:46:36;95043.00;;;4.71;96.30
42247;BME280;27913;42.722;23.268;2024-02-14T06:49:03;94658.22;;;2.39;95.84
42247;BME280;27913;42.722;23.268;2024-02-14T06:51:29;95035.34;;;4.70;95.33
42247;BME280;27913;42.722;23.268;2024-02-14T06:53:56;94878.81;;;3.64;95.01
42247;BME280;27913;42.722;23.268;2024-02-14T06:56:22;94937.84;;;3.99;94.41
42247;BME280;27913;42.722;23.268;2024-02-14T06:58:48;94964.63;;;4.10;94.80
42247;BME280;27913;42.722;23.268;2024-02-14T07:01:19;95064.53;;;4.74;94.85
42247;BME280;27913;42.722;23.268;2024-02-14T07:03:48;94929.47;;;4.06;93.75
42247;BME280;27913;42.722;23.268;2024-02-14T07:06:14;95018.59;;;4.54;93.73
42247;BME280;27913;42.722;23.268;2024-02-14T07:08:42;94778.44;;;3.06;93.92
42247;BME280;27913;42.722;23.268;2024-02-14T07:11:08;94932.94;;;3.96;92.22
42247;BME280;27913;42.722;23.268;2024-02-14T07:13:34;94651.59;;;2.27;92.05
42247;BME280;27913;42.722;23.268;2024-02-14T07:16:00;95054.75;;;4.94;92.69
42247;BME280;27913;42.722;23.268;2024-02-14T07:18:25;94829.53;;;3.44;92.07
42247;BME280;27913;42.722;23.268;2024-02-14T07:20:51;95069.38;;;4.87;92.13
42247;BME280;27913;42.722;23.268;2024-02-14T07:23:18;94769.63;;;2.89;92.32
42247;BME280;27913;42.722;23.268;2024-02-14T07:25:44;95101.81;;;4.92;92.68
42247;BME280;27913;42.722;23.268;2024-02-14T07:28:10;94801.34;;;3.21;91.19
42247;BME280;27913;42.722;23.268;2024-02-14T07:30:36;94855.31;;;3.55;92.03
42247;BME280;27913;42.722;23.268;2024-02-14T07:33:01;95099.56;;;4.98;92.29
42247;BME280;27913;42.722;23.268;2024-02-14T07:35:27;94974.16;;;4.38;91.93
42247;BME280;27913;42.722;23.268;2024-02-14T07:37:54;95123.94;;;5.06;91.67
42247;BME280;27913;42.722;23.268;2024-02-14T07:40:21;95109.78;;;5.09;91.19
42247;BME280;27913;42.722;23.268;2024-02-14T07:42:47;94841.72;;;3.61;90.67
42247;BME280;27913;42.722;23.268;2024-02-14T07:45:12;95120.66;;;5.23;90.24
42247;BME280;27913;42.722;23.268;2024-02-14T07:47:38;95100.25;;;5.18;89.57
42247;BME280;27913;42.722;23.268;2024-02-14T07:50:06;95013.31;;;4.64;89.56
42247;BME280;27913;42.722;23.268;2024-02-14T07:52:31;95114.25;;;5.17;89.91
42247;BME280;27913;42.722;23.268;2024-02-14T07:54:57;95126.47;;;5.16;89.90
42247;BME280;27913;42.722;23.268;2024-02-14T07:57:23;94940.44;;;3.81;90.39
42247;BME280;27913;42.722;23.268;2024-02-14T07:59:53;94785.28;;;3.07;91.29
42247;BME280;27913;42.722;23.268;2024-02-14T08:02:19;95116.47;;;5.12;90.90
42247;BME280;27913;42.722;23.268;2024-02-14T08:04:45;94946.78;;;3.97;89.71
42247;BME280;27913;42.722;23.268;2024-02-14T08:07:10;95120.59;;;4.96;89.57
42247;BME280;27913;42.722;23.268;2024-02-14T08:09:36;95007.72;;;4.22;90.08
42247;BME280;27913;42.722;23.268;2024-02-14T08:12:04;95124.16;;;4.95;90.32
42247;BME280;27913;42.722;23.268;2024-02-14T08:14:29;95032.50;;;4.27;90.06
42247;BME280;27913;42.722;23.268;2024-02-14T08:16:55;95128.19;;;4.89;89.41
42247;BME280;27913;42.722;23.268;2024-02-14T08:19:20;95140.84;;;4.84;89.90
42247;BME280;27913;42.722;23.268;2024-02-14T08:21:46;95126.03;;;4.85;89.86
42247;BME280;27913;42.722;23.268;2024-02-14T08:24:12;94782.72;;;2.69;89.85
42247;BME280;27913;42.722;23.268;2024-02-14T08:26:37;94995.31;;;3.88;90.16
42247;BME280;27913;42.722;23.268;2024-02-14T08:29:03;95037.59;;;4.18;90.02
42247;BME280;27913;42.722;23.268;2024-02-14T08:31:29;95033.66;;;4.14;89.70
42247;BME280;27913;42.722;23.268;2024-02-14T08:33:56;95141.44;;;4.78;nan
42247;BME280;27913;42.722;23.268;2024-02-14T08:36:21;95137.31;;;4.75;89.58
42247;BME280;27913;42.722;23.268;2024-02-14T08:38:47;95132.19;;;4.65;89.68
42247;BME280;27913;42.722;23.268;2024-02-14T08:41:12;95141.25;;;4.61;90.38
42247;BME280;27913;42.722;23.268;2024-02-14T08:43:39;95042.44;;;3.85;89.84
42247;BME280;27913;42.722;23.268;2024-02-14T08:46:12;95019.69;;;3.87;90.70
42247;BME280;27913;42.722;23.268;2024-02-14T08:48:37;95060.25;;;4.08;90.56
42247;BME280;27913;42.722;23.268;2024-02-14T08:51:07;95153.28;;;4.44;90.71
42247;BME280;27913;42.722;23.268;2024-02-14T08:53:35;94928.59;;;3.12;90.74
42247;BME280;27913;42.722;23.268;2024-02-14T08:56:01;95153.13;;;4.45;91.02
42247;BME280;27913;42.722;23.268;2024-02-14T08:58:27;95189.59;;;4.45;91.55
42247;BME280;27913;42.722;23.268;2024-02-14T09:00:52;94884.91;;;2.88;90.46
42247;BME280;27913;42.722;23.268;2024-02-14T09:03:19;95162.41;;;4.48;90.95
42247;BME280;27913;42.722;23.268;2024-02-14T09:05:45;95159.81;;;4.48;91.24
42247;BME280;27913;42.722;23.268;2024-02-14T09:08:12;95171.91;;;4.49;90.85
42247;BME280;27913;42.722;23.268;2024-02-14T09:10:38;94775.38;;;2.16;90.39
42247;BME280;27913;42.722;23.268;2024-02-14T09:13:04;95165.28;;;4.55;90.19
42247;BME280;27913;42.722;23.268;2024-02-14T09:15:29;94879.47;;;2.71;90.22
42247;BME280;27913;42.722;23.268;2024-02-14T09:17:56;95157.66;;;4.43;91.00
42247;BME280;27913;42.722;23.268;2024-02-14T09:20:22;95172.91;;;4.38;90.56
42247;BME280;27913;42.722;23.268;2024-02-14T09:22:48;95009.38;;;3.39;90.87
42247;BME280;27913;42.722;23.268;2024-02-14T09:25:13;95167.84;;;4.37;91.00
42247;BME280;27913;42.722;23.268;2024-02-14T09:27:39;95162.38;;;4.30;91.13
42247;BME280;27913;42.722;23.268;2024-02-14T09:30:07;95160.72;;;4.39;90.37
42247;BME280;27913;42.722;23.268;2024-02-14T09:32:33;95182.16;;;4.51;90.36
42247;BME280;27913;42.722;23.268;2024-02-14T09:34:59;95189.78;;;4.62;90.36
42247;BME280;27913;42.722;23.268;2024-02-14T09:37:26;95045.19;;;3.83;88.70
42247;BME280;27913;42.722;23.268;2024-02-14T09:39:51;94654.19;;;1.51;87.44
42247;BME280;27913;42.722;23.268;2024-02-14T09:42:21;95174.63;;;4.76;88.00
42247;BME280;27913;42.722;23.268;2024-02-14T09:44:52;95168.91;;;4.72;87.76
42247;BME280;27913;42.722;23.268;2024-02-14T09:47:22;95065.22;;;4.01;88.09
42247;BME280;27913;42.722;23.268;2024-02-14T09:49:48;95139.63;;;4.32;87.30
42247;BME280;27913;42.722;23.268;2024-02-14T09:52:16;95186.00;;;4.75;87.71
42247;BME280;27913;42.722;23.268;2024-02-14T09:54:42;95166.81;;;4.76;87.79
42247;BME280;27913;42.722;23.268;2024-02-14T09:57:09;95185.38;;;4.91;86.99
42247;BME280;27913;42.722;23.268;2024-02-14T09:59:35;95166.91;;;4.84;86.92
42247;BME280;27913;42.722;23.268;2024-02-14T10:02:01;95173.38;;;4.98;86.80
42247;BME280;27913;42.722;23.268;2024-02-14T10:04:27;95143.38;;;4.76;86.44
42247;BME280;27913;42.722;23.268;2024-02-14T10:06:52;95172.56;;;4.98;86.38
42247;BME280;27913;42.722;23.268;2024-02-14T10:09:20;95011.31;;;3.93;86.01
42247;BME280;27913;42.722;23.268;2024-02-14T10:11:46;95091.34;;;4.38;86.00
42247;BME280;27913;42.722;23.268;2024-02-14T10:14:12;94938.81;;;3.52;85.95
42247;BME280;27913;42.722;23.268;2024-02-14T10:16:38;95169.00;;;4.99;85.49
42247;BME280;27913;42.722;23.268;2024-02-14T10:19:03;94782.09;;;2.57;85.12
42247;BME280;27913;42.722;23.268;2024-02-14T10:21:29;95177.63;;;4.99;85.27
42247;BME280;27913;42.722;23.268;2024-02-14T10:24:01;95174.38;;;4.97;84.74
42247;BME280;27913;42.722;23.268;2024-02-14T10:26:28;95094.78;;;4.38;84.68
42247;BME280;27913;42.722;23.268;2024-02-14T10:28:56;95178.75;;;5.15;84.31
42247;BME280;27913;42.722;23.268;2024-02-14T10:31:26;95011.34;;;4.11;83.61
42247;BME280;27913;42.722;23.268;2024-02-14T10:33:55;95114.41;;;4.79;84.21
42247;BME280;27913;42.722;23.268;2024-02-14T10:36:24;94806.88;;;3.08;83.01
42247;BME280;27913;42.722;23.268;2024-02-14T10:38:51;95132.66;;;4.97;83.28
42247;BME280;27913;42.722;23.268;2024-02-14T10:41:17;94912.19;;;3.68;82.46
42247;BME280;27913;42.722;23.268;2024-02-14T10:43:43;95090.72;;;4.72;82.29
42247;BME280;27913;42.722;23.268;2024-02-14T10:46:19;94965.94;;;3.78;82.82
42247;BME280;27913;42.722;23.268;2024-02-14T10:48:46;95051.94;;;4.51;82.92
42247;BME280;27913;42.722;23.268;2024-02-14T10:51:15;95161.03;;;5.18;83.16
42247;BME280;27913;42.722;23.268;2024-02-14T10:53:40;95069.63;;;4.47;83.11
42247;BME280;27913;42.722;23.268;2024-02-14T10:56:13;95164.25;;;5.12;83.31
42247;BME280;27913;42.722;23.268;2024-02-14T10:58:45;95044.09;;;4.32;83.16
42247;BME280;27913;42.722;23.268;2024-02-14T11:01:11;95081.44;;;4.41;83.19
42247;BME280;27913;42.722;23.268;2024-02-14T11:03:37;95177.34;;;5.02;82.81
42247;BME280;27913;42.722;23.268;2024-02-14T11:06:03;95168.19;;;4.98;82.76
42247;BME280;27913;42.722;23.268;2024-02-14T11:08:29;94905.31;;;3.49;83.05
42247;BME280;27913;42.722;23.268;2024-02-14T11:10:59;95151.19;;;4.94;83.08
42247;BME280;27913;42.722;23.268;2024-02-14T11:13:26;95150.97;;;5.05;83.02
42247;BME280;27913;42.722;23.268;2024-02-14T11:15:53;95026.56;;;4.06;82.92
42247;BME280;27913;42.722;23.268;2024-02-14T11:18:30;95157.44;;;5.01;83.64
42247;BME280;27913;42.722;23.268;2024-02-14T11:20:56;95075.59;;;4.39;83.75
42247;BME280;27913;42.722;23.268;2024-02-14T11:23:25;95170.78;;;4.98;84.07
42247;BME280;27913;42.722;23.268;2024-02-14T11:25:59;95072.63;;;4.34;83.82
42247;BME280;27913;42.722;23.268;2024-02-14T11:28:25;95160.38;;;4.98;84.29
42247;BME280;27913;42.722;23.268;2024-02-14T11:31:00;94864.28;;;3.14;84.57
42247;BME280;27913;42.722;23.268;2024-02-14T11:33:26;95077.53;;;4.37;84.62
42247;BME280;27913;42.722;23.268;2024-02-14T11:35:53;95156.69;;;4.91;84.85
42247;BME280;27913;42.722;23.268;2024-02-14T11:38:22;95051.91;;;4.32;85.34
42247;BME280;27913;42.722;23.268;2024-02-14T11:40:55;95174.38;;;4.97;84.85
42247;BME280;27913;42.722;23.268;2024-02-14T11:43:23;94950.66;;;3.65;85.17
42247;BME280;27913;42.722;23.268;2024-02-14T11:45:50;95163.50;;;5.02;85.40
42247;BME280;27913;42.722;23.268;2024-02-14T11:48:17;95057.22;;;4.41;84.16
42247;BME280;27913;42.722;23.268;2024-02-14T11:50:44;95010.19;;;3.96;84.25
42247;BME280;27913;42.722;23.268;2024-02-14T11:53:11;95112.09;;;4.76;84.17
42247;BME280;27913;42.722;23.268;2024-02-14T11:55:40;95129.59;;;5.02;84.04
42247;BME280;27913;42.722;23.268;2024-02-14T11:58:12;95120.38;;;5.07;83.61
42247;BME280;27913;42.722;23.268;2024-02-14T12:00:42;95069.66;;;4.65;83.02
42247;BME280;27913;42.722;23.268;2024-02-14T12:03:22;95117.41;;;5.02;82.60
42247;BME280;27913;42.722;23.268;2024-02-14T12:05:50;95072.69;;;4.61;82.99
42247;BME280;27913;42.722;23.268;2024-02-14T12:08:17;95166.38;;;5.17;83.20
42247;BME280;27913;42.722;23.268;2024-02-14T12:10:46;95093.78;;;4.86;82.44
42247;BME280;27913;42.722;23.268;2024-02-14T12:13:15;95022.72;;;4.29;82.06
42247;BME280;27913;42.722;23.268;2024-02-14T12:15:44;95116.13;;;5.06;81.97
42247;BME280;27913;42.722;23.268;2024-02-14T12:18:11;95155.13;;;5.35;82.54
42247;BME280;27913;42.722;23.268;2024-02-14T12:20:40;95031.81;;;4.43;81.89
42247;BME280;27913;42.722;23.268;2024-02-14T12:23:06;95149.75;;;5.36;81.71
42247;BME280;27913;42.722;23.268;2024-02-14T12:25:33;95037.94;;;4.70;81.91
42247;BME280;27913;42.722;23.268;2024-02-14T12:27:59;94731.91;;;2.85;81.52
42247;BME280;27913;42.722;23.268;2024-02-14T12:30:45;95170.78;;;5.53;81.45
42247;BME280;27913;42.722;23.268;2024-02-14T12:33:12;95072.16;;;5.12;81.63
42247;BME280;27913;42.722;23.268;2024-02-14T12:35:44;95129.06;;;5.35;81.63
42247;BME280;27913;42.722;23.268;2024-02-14T12:38:10;95151.53;;;5.54;80.87
42247;BME280;27913;42.722;23.268;2024-02-14T12:40:36;95160.19;;;5.54;81.14
42247;BME280;27913;42.722;23.268;2024-02-14T12:43:02;95154.59;;;5.67;81.07
42247;BME280;27913;42.722;23.268;2024-02-14T12:45:29;95131.59;;;5.71;80.64
42247;BME280;27913;42.722;23.268;2024-02-14T12:47:54;95062.19;;;5.07;80.68
42247;BME280;27913;42.722;23.268;2024-02-14T12:50:20;95167.47;;;5.69;80.69
42247;BME280;27913;42.722;23.268;2024-02-14T12:52:46;94753.31;;;3.25;80.24
42247;BME280;27913;42.722;23.268;2024-02-14T12:55:14;94650.13;;;2.52;79.84